sensor_id;sensor_type;location;lat;lon;timestamp;pressure;altitude;pressure_sealevel;temperature;humidity
15932;BME280;8065;49.520;11.284;2023-04-06T00:02:13;97796.00;;;5.31;58.69
15932;BME280;8065;49.520;11.284;2023-04-06T00:04:40;97793.63;;;5.30;59.11
15932;BME280;8065;49.520;11.284;2023-04-06T00:07:06;97794.44;;;5.30;58.09
15932;BME280;8065;49.520;11.284;2023-04-06T00:09:33;97798.78;;;5.16;59.43
15932;BME280;8065;49.520;11.284;2023-04-06T00:11:59;97788.16;;;5.21;59.08
15932;BME280;8065;49.520;11.284;2023-04-06T00:14:27;97789.81;;;5.17;59.09
15932;BME280;8065;49.520;11.284;2023-04-06T00:16:56;97793.41;;;5.26;59.05
15932;BME280;8065;49.520;11.284;2023-04-06T00:19:23;97796.56;;;5.28;58.53
15932;BME280;8065;49.520;11.284;2023-04-06T00:21:49;97787.59;;;5.29;59.13
15932;BME280;8065;49.520;11.284;2023-04-06T00:24:16;97780.13;;;5.07;59.89
15932;BME280;8065;49.520;11.284;2023-04-06T00:26:42;97783.56;;;5.08;60.34
15932;BME280;8065;49.520;11.284;2023-04-06T00:29:09;97786.44;;;5.11;59.89
15932;BME280;8065;49.520;11.284;2023-04-06T00:31:37;97778.06;;;5.04;59.71
15932;BME280;8065;49.520;11.284;2023-04-06T00:34:05;97781.41;;;5.15;59.49
15932;BME280;8065;49.520;11.284;2023-04-06T00:36:32;97776.16;;;5.10;59.50
15932;BME280;8065;49.520;11.284;2023-04-06T00:38:58;97781.53;;;4.94;60.16
15932;BME280;8065;49.520;11.284;2023-04-06T00:41:25;97783.88;;;5.01;60.50
15932;BME280;8065;49.520;11.284;2023-04-06T00:43:53;97777.34;;;4.88;60.69
15932;BME280;8065;49.520;11.284;2023-04-06T00:46:20;97779.41;;;4.97;59.93
15932;BME280;8065;49.520;11.284;2023-04-06T00:48:48;97778.88;;;5.00;59.88
15932;BME280;8065;49.520;11.284;2023-04-06T00:51:14;97777.41;;;4.78;61.23
15932;BME280;8065;49.520;11.284;2023-04-06T00:53:41;97771.53;;;4.91;61.01
15932;BME280;8065;49.520;11.284;2023-04-06T00:56:07;97775.97;;;5.01;60.25
15932;BME280;8065;49.520;11.284;2023-04-06T00:58:35;97774.78;;;4.78;60.44
15932;BME280;8065;49.520;11.284;2023-04-06T01:01:03;97774.78;;;4.78;60.93
15932;BME280;8065;49.520;11.284;2023-04-06T01:03:29;97773.25;;;4.72;60.27
15932;BME280;8065;49.520;11.284;2023-04-06T01:05:57;97775.66;;;4.64;60.99
15932;BME280;8065;49.520;11.284;2023-04-06T01:08:24;97768.09;;;4.52;61.31
15932;BME280;8065;49.520;11.284;2023-04-06T01:10:51;97763.34;;;4.54;61.19
15932;BME280;8065;49.520;11.284;2023-04-06T01:13:17;97764.34;;;4.63;61.54
15932;BME280;8065;49.520;11.284;2023-04-06T01:15:45;97769.59;;;4.63;61.04
15932;BME280;8065;49.520;11.284;2023-04-06T01:18:12;97762.03;;;4.51;61.93
15932;BME280;8065;49.520;11.284;2023-04-06T01:20:39;97773.34;;;4.52;61.72
15932;BME280;8065;49.520;11.284;2023-04-06T01:23:07;97774.94;;;4.48;61.89
15932;BME280;8065;49.520;11.284;2023-04-06T01:25:33;97771.53;;;4.47;62.39
15932;BME280;8065;49.520;11.284;2023-04-06T01:28:00;97764.94;;;4.50;62.06
15932;BME280;8065;49.520;11.284;2023-04-06T01:30:26;97764.38;;;4.58;61.77
15932;BME280;8065;49.520;11.284;2023-04-06T01:32:53;97768.13;;;4.47;61.57
15932;BME280;8065;49.520;11.284;2023-04-06T01:35:20;97763.38;;;4.49;61.16
15932;BME280;8065;49.520;11.284;2023-04-06T01:37:46;97763.88;;;4.51;62.32
15932;BME280;8065;49.520;11.284;2023-04-06T01:40:14;97759.19;;;4.43;62.95
15932;BME280;8065;49.520;11.284;2023-04-06T01:42:41;97763.94;;;4.36;62.29
15932;BME280;8065;49.520;11.284;2023-04-06T01:45:08;97758.81;;;4.15;63.91
15932;BME280;8065;49.520;11.284;2023-04-06T01:47:35;97753.03;;;4.13;62.73
15932;BME280;8065;49.520;11.284;2023-04-06T01:50:02;97747.28;;;4.01;63.64
15932;BME280;8065;49.520;11.284;2023-04-06T01:52:31;97749.34;;;4.09;63.13
15932;BME280;8065;49.520;11.284;2023-04-06T01:54:58;97751.50;;;3.97;63.78
15932;BME280;8065;49.520;11.284;2023-04-06T01:57:25;97748.84;;;4.02;63.63
15932;BME280;8065;49.520;11.284;2023-04-06T01:59:52;97746.50;;;4.01;64.69
15932;BME280;8065;49.520;11.284;2023-04-06T02:02:19;97748.34;;;4.00;64.26
15932;BME280;8065;49.520;11.284;2023-04-06T02:04:45;97744.69;;;3.86;65.15
15932;BME280;8065;49.520;11.284;2023-04-06T02:07:12;97744.44;;;3.82;65.14
15932;BME280;8065;49.520;11.284;2023-04-06T02:09:39;97745.19;;;3.93;64.22
15932;BME280;8065;49.520;11.284;2023-04-06T02:12:05;97753.09;;;3.88;65.58
15932;BME280;8065;49.520;11.284;2023-04-06T02:14:33;97738.91;;;3.89;66.08
15932;BME280;8065;49.520;11.284;2023-04-06T02:17:00;97742.56;;;3.93;65.01
15932;BME280;8065;49.520;11.284;2023-04-06T02:19:26;97738.91;;;3.84;64.86
15932;BME280;8065;49.520;11.284;2023-04-06T02:21:53;97744.69;;;3.86;65.61
15932;BME280;8065;49.520;11.284;2023-04-06T02:24:19;97738.38;;;3.92;64.84
15932;BME280;8065;49.520;11.284;2023-04-06T02:26:46;97739.69;;;3.89;64.90
15932;BME280;8065;49.520;11.284;2023-04-06T02:29:13;97741.00;;;3.87;65.16
15932;BME280;8065;49.520;11.284;2023-04-06T02:31:40;97744.72;;;3.76;64.41
15932;BME280;8065;49.520;11.284;2023-04-06T02:34:07;97732.09;;;3.83;65.37
15932;BME280;8065;49.520;11.284;2023-04-06T02:36:36;97739.72;;;3.84;64.40
15932;BME280;8065;49.520;11.284;2023-04-06T02:39:02;97744.72;;;3.76;64.27
15932;BME280;8065;49.520;11.284;2023-04-06T02:41:29;97742.09;;;3.81;64.60
15932;BME280;8065;49.520;11.284;2023-04-06T02:43:56;97731.53;;;3.91;65.20
15932;BME280;8065;49.520;11.284;2023-04-06T02:46:22;97733.66;;;3.89;65.08
15932;BME280;8065;49.520;11.284;2023-04-06T02:48:50;97740.19;;;3.97;64.39
15932;BME280;8065;49.520;11.284;2023-04-06T02:51:17;97745.22;;;3.83;64.55
15932;BME280;8065;49.520;11.284;2023-04-06T02:53:43;97738.44;;;3.72;64.72
15932;BME280;8065;49.520;11.284;2023-04-06T02:56:10;97742.91;;;3.61;64.52
15932;BME280;8065;49.520;11.284;2023-04-06T02:58:36;97745.81;;;3.59;65.81
15932;BME280;8065;49.520;11.284;2023-04-06T03:01:03;97747.13;;;3.57;65.83
15932;BME280;8065;49.520;11.284;2023-04-06T03:03:30;97741.09;;;3.56;66.10
15932;BME280;8065;49.520;11.284;2023-04-06T03:05:58;97745.81;;;3.54;65.06
15932;BME280;8065;49.520;11.284;2023-04-06T03:08:25;97751.06;;;3.49;65.69
15932;BME280;8065;49.520;11.284;2023-04-06T03:10:52;97746.59;;;3.50;66.76
15932;BME280;8065;49.520;11.284;2023-04-06T03:13:18;97750.53;;;3.52;65.20
15932;BME280;8065;49.520;11.284;2023-04-06T03:15:45;97750.28;;;3.59;65.43
15932;BME280;8065;49.520;11.284;2023-04-06T03:18:12;97745.81;;;3.59;65.96
15932;BME280;8065;49.520;11.284;2023-04-06T03:20:38;97747.94;;;3.47;66.03
15932;BME280;8065;49.520;11.284;2023-04-06T03:23:07;97747.94;;;3.47;66.92
15932;BME280;8065;49.520;11.284;2023-04-06T03:25:33;97743.75;;;3.41;66.98
15932;BME280;8065;49.520;11.284;2023-04-06T03:28:00;97744.81;;;3.45;66.25
15932;BME280;8065;49.520;11.284;2023-04-06T03:30:26;97751.63;;;3.41;65.84
15932;BME280;8065;49.520;11.284;2023-04-06T03:32:53;97753.75;;;3.39;65.70
15932;BME280;8065;49.520;11.284;2023-04-06T03:35:20;97753.22;;;3.37;65.61
15932;BME280;8065;49.520;11.284;2023-04-06T03:37:46;97751.63;;;3.36;65.85
15932;BME280;8065;49.520;11.284;2023-04-06T03:40:14;97755.84;;;3.42;66.01
15932;BME280;8065;49.520;11.284;2023-04-06T03:42:41;97751.63;;;3.36;66.13
15932;BME280;8065;49.520;11.284;2023-04-06T03:45:08;97756.88;;;3.36;67.21
15932;BME280;8065;49.520;11.284;2023-04-06T03:47:35;97754.25;;;3.41;66.42
15932;BME280;8065;49.520;11.284;2023-04-06T03:50:02;97763.69;;;3.47;66.15
15932;BME280;8065;49.520;11.284;2023-04-06T03:52:28;97765.81;;;3.45;65.64
15932;BME280;8065;49.520;11.284;2023-04-06T03:54:55;97762.63;;;3.53;65.52
15932;BME280;8065;49.520;11.284;2023-04-06T03:57:23;97773.69;;;3.40;65.99
15932;BME280;8065;49.520;11.284;2023-04-06T03:59:50;97765.28;;;3.38;66.23
15932;BME280;8065;49.520;11.284;2023-04-06T04:02:16;97770.50;;;3.48;66.28
15932;BME280;8065;49.520;11.284;2023-04-06T04:04:43;97770.50;;;3.48;66.31
15932;BME280;8065;49.520;11.284;2023-04-06T04:07:09;97770.53;;;3.43;66.90
15932;BME280;8065;49.520;11.284;2023-04-06T04:09:36;97768.97;;;3.42;65.90
15932;BME280;8065;49.520;11.284;2023-04-06T04:12:03;97774.75;;;3.44;66.28
15932;BME280;8065;49.520;11.284;2023-04-06T04:14:31;97775.53;;;3.35;67.21
15932;BME280;8065;49.520;11.284;2023-04-06T04:16:58;97765.81;;;3.25;66.97
15932;BME280;8065;49.520;11.284;2023-04-06T04:19:24;97771.06;;;3.35;66.76
15932;BME280;8065;49.520;11.284;2023-04-06T04:21:51;97768.44;;;3.40;66.63
15932;BME280;8065;49.520;11.284;2023-04-06T04:24:17;97770.28;;;3.35;66.37
15932;BME280;8065;49.520;11.284;2023-04-06T04:26:44;97771.88;;;3.25;66.58
15932;BME280;8065;49.520;11.284;2023-04-06T04:29:11;97765.81;;;3.25;66.46
15932;BME280;8065;49.520;11.284;2023-04-06T04:31:38;97769.25;;;3.25;66.27
15932;BME280;8065;49.520;11.284;2023-04-06T04:34:05;97768.97;;;3.27;66.65
15932;BME280;8065;49.520;11.284;2023-04-06T04:36:33;97765.03;;;3.19;67.21
15932;BME280;8065;49.520;11.284;2023-04-06T04:38:59;97774.75;;;3.24;66.42
15932;BME280;8065;49.520;11.284;2023-04-06T04:41:26;97767.13;;;3.22;67.33
15932;BME280;8065;49.520;11.284;2023-04-06T04:43:53;97765.56;;;3.21;67.23
15932;BME280;8065;49.520;11.284;2023-04-06T04:46:20;97760.03;;;3.28;67.41
15932;BME280;8065;49.520;11.284;2023-04-06T04:48:48;97760.56;;;3.25;66.52
15932;BME280;8065;49.520;11.284;2023-04-06T04:51:15;97768.72;;;3.23;67.25
15932;BME280;8065;49.520;11.284;2023-04-06T04:53:41;97764.25;;;3.24;66.49
15932;BME280;8065;49.520;11.284;2023-04-06T04:56:08;97761.63;;;3.19;67.92
15932;BME280;8065;49.520;11.284;2023-04-06T04:58:34;97770.53;;;3.13;67.47
15932;BME280;8065;49.520;11.284;2023-04-06T05:01:01;97771.06;;;3.20;67.18
15932;BME280;8065;49.520;11.284;2023-04-06T05:03:28;97769.50;;;3.24;66.70
15932;BME280;8065;49.520;11.284;2023-04-06T05:05:56;97771.06;;;3.20;67.21
15932;BME280;8065;49.520;11.284;2023-04-06T05:08:22;97767.91;;;3.33;67.39
15932;BME280;8065;49.520;11.284;2023-04-06T05:10:49;97775.81;;;3.28;67.10
15932;BME280;8065;49.520;11.284;2023-04-06T05:13:16;97770.28;;;3.35;66.85
15932;BME280;8065;49.520;11.284;2023-04-06T05:15:42;97772.13;;;3.39;67.39
15932;BME280;8065;49.520;11.284;2023-04-06T05:18:10;97778.16;;;3.40;67.09
15932;BME280;8065;49.520;11.284;2023-04-06T05:20:38;97766.34;;;3.37;66.49
15932;BME280;8065;49.520;11.284;2023-04-06T05:23:07;97776.84;;;3.42;66.55
15932;BME280;8065;49.520;11.284;2023-04-06T05:25:33;97778.91;;;3.55;65.62
15932;BME280;8065;49.520;11.284;2023-04-06T05:28:00;97768.41;;;3.60;66.06
15932;BME280;8065;49.520;11.284;2023-04-06T05:30:27;97769.97;;;3.72;65.34
15932;BME280;8065;49.520;11.284;2023-04-06T05:32:54;97774.94;;;3.73;66.56
15932;BME280;8065;49.520;11.284;2023-04-06T05:35:20;97775.97;;;3.82;65.10
15932;BME280;8065;49.520;11.284;2023-04-06T05:37:47;97780.97;;;3.79;66.50
15932;BME280;8065;49.520;11.284;2023-04-06T05:40:15;97779.66;;;3.81;66.52
15932;BME280;8065;49.520;11.284;2023-04-06T05:42:42;97784.91;;;3.86;66.22
15932;BME280;8065;49.520;11.284;2023-04-06T05:45:09;97787.00;;;3.94;65.75
15932;BME280;8065;49.520;11.284;2023-04-06T05:47:42;97783.03;;;3.97;65.54
15932;BME280;8065;49.520;11.284;2023-04-06T05:50:09;97788.03;;;3.93;65.40
15932;BME280;8065;49.520;11.284;2023-04-06T05:52:35;97792.25;;;3.94;65.04
15932;BME280;8065;49.520;11.284;2023-04-06T05:55:02;97791.97;;;4.06;64.94
15932;BME280;8065;49.520;11.284;2023-04-06T05:57:31;97796.41;;;4.16;65.70
15932;BME280;8065;49.520;11.284;2023-04-06T05:59:57;97790.06;;;4.22;65.23
15932;BME280;8065;49.520;11.284;2023-04-06T06:02:24;97793.25;;;4.14;64.94
15932;BME280;8065;49.520;11.284;2023-04-06T06:04:51;97794.00;;;4.24;64.50
15932;BME280;8065;49.520;11.284;2023-04-06T06:07:17;97794.25;;;4.28;64.86
15932;BME280;8065;49.520;11.284;2023-04-06T06:09:44;97792.94;;;4.25;65.52
15932;BME280;8065;49.520;11.284;2023-04-06T06:12:10;97796.66;;;4.19;65.72
15932;BME280;8065;49.520;11.284;2023-04-06T06:14:38;97803.97;;;4.33;65.78
15932;BME280;8065;49.520;11.284;2023-04-06T06:17:05;97805.72;;;4.47;65.37
15932;BME280;8065;49.520;11.284;2023-04-06T06:19:31;97804.44;;;4.45;65.23
15932;BME280;8065;49.520;11.284;2023-04-06T06:21:58;97800.16;;;4.59;64.64
15932;BME280;8065;49.520;11.284;2023-04-06T06:24:27;97801.69;;;4.70;64.13
15932;BME280;8065;49.520;11.284;2023-04-06T06:26:54;97801.13;;;4.73;64.07
15932;BME280;8065;49.520;11.284;2023-04-06T06:29:20;97808.47;;;4.81;63.13
15932;BME280;8065;49.520;11.284;2023-04-06T06:31:50;97802.59;;;4.94;63.47
15932;BME280;8065;49.520;11.284;2023-04-06T06:34:16;97806.25;;;4.99;63.13
15932;BME280;8065;49.520;11.284;2023-04-06T06:36:43;97794.63;;;5.05;63.49
15932;BME280;8065;49.520;11.284;2023-04-06T06:39:09;97802.91;;;5.22;63.49
15932;BME280;8065;49.520;11.284;2023-04-06T06:41:36;97799.81;;;5.20;63.09
15932;BME280;8065;49.520;11.284;2023-04-06T06:44:03;97806.84;;;5.24;62.84
15932;BME280;8065;49.520;11.284;2023-04-06T06:46:29;97813.34;;;5.37;61.84
15932;BME280;8065;49.520;11.284;2023-04-06T06:48:58;97802.59;;;5.63;61.60
15932;BME280;8065;49.520;11.284;2023-04-06T06:51:25;97808.88;;;5.67;61.25
15932;BME280;8065;49.520;11.284;2023-04-06T06:53:52;97804.78;;;5.84;60.98
15932;BME280;8065;49.520;11.284;2023-04-06T06:56:18;97806.03;;;5.92;60.50
15932;BME280;8065;49.520;11.284;2023-04-06T06:58:45;97804.19;;;6.16;60.44
15932;BME280;8065;49.520;11.284;2023-04-06T07:01:11;97801.88;;;6.34;60.01
15932;BME280;8065;49.520;11.284;2023-04-06T07:03:38;97807.72;;;6.31;58.99
15932;BME280;8065;49.520;11.284;2023-04-06T07:06:06;97804.13;;;6.45;58.41
15932;BME280;8065;49.520;11.284;2023-04-06T07:08:33;97801.19;;;6.47;58.81
15932;BME280;8065;49.520;11.284;2023-04-06T07:10:59;97792.19;;;6.72;58.54
15932;BME280;8065;49.520;11.284;2023-04-06T07:13:26;97793.25;;;6.89;58.31
15932;BME280;8065;49.520;11.284;2023-04-06T07:15:52;97794.59;;;7.06;58.23
15932;BME280;8065;49.520;11.284;2023-04-06T07:18:19;97803.06;;;7.21;57.24
15932;BME280;8065;49.520;11.284;2023-04-06T07:20:46;97798.06;;;7.20;56.34
15932;BME280;8065;49.520;11.284;2023-04-06T07:23:14;97800.72;;;7.20;55.95
15932;BME280;8065;49.520;11.284;2023-04-06T07:25:40;97801.47;;;7.39;56.02
15932;BME280;8065;49.520;11.284;2023-04-06T07:28:08;97801.84;;;7.65;55.24
15932;BME280;8065;49.520;11.284;2023-04-06T07:30:37;97794.91;;;7.69;55.14
15932;BME280;8065;49.520;11.284;2023-04-06T07:33:03;97792.50;;;8.00;54.98
15932;BME280;8065;49.520;11.284;2023-04-06T07:35:30;97787.69;;;8.02;54.01
15932;BME280;8065;49.520;11.284;2023-04-06T07:37:57;97803.59;;;8.30;54.67
15932;BME280;8065;49.520;11.284;2023-04-06T07:40:25;97798.91;;;8.54;54.48
15932;BME280;8065;49.520;11.284;2023-04-06T07:42:52;97794.97;;;8.65;54.82
15932;BME280;8065;49.520;11.284;2023-04-06T07:45:19;97797.25;;;8.80;52.99
15932;BME280;8065;49.520;11.284;2023-04-06T07:47:45;97805.66;;;8.96;53.90
15932;BME280;8065;49.520;11.284;2023-04-06T07:50:12;97799.97;;;9.25;52.92
15932;BME280;8065;49.520;11.284;2023-04-06T07:52:39;97791.84;;;9.22;52.09
15932;BME280;8065;49.520;11.284;2023-04-06T07:55:06;97791.53;;;9.45;50.31
15932;BME280;8065;49.520;11.284;2023-04-06T07:57:34;97795.28;;;9.44;50.22
15932;BME280;8065;49.520;11.284;2023-04-06T08:00:00;97789.09;;;9.58;50.19
15932;BME280;8065;49.520;11.284;2023-04-06T08:02:29;97795.47;;;9.79;50.50
15932;BME280;8065;49.520;11.284;2023-04-06T08:04:55;97784.66;;;10.06;49.80
15932;BME280;8065;49.520;11.284;2023-04-06T08:07:22;97791.66;;;10.25;50.32
15932;BME280;8065;49.520;11.284;2023-04-06T08:09:48;97779.19;;;10.34;49.43
15932;BME280;8065;49.520;11.284;2023-04-06T08:12:15;97783.41;;;10.43;49.85
15932;BME280;8065;49.520;11.284;2023-04-06T08:14:43;97783.72;;;10.50;50.41
15932;BME280;8065;49.520;11.284;2023-04-06T08:17:09;97785.44;;;10.38;49.33
15932;BME280;8065;49.520;11.284;2023-04-06T08:19:36;97780.47;;;10.62;48.09
15932;BME280;8065;49.520;11.284;2023-04-06T08:22:02;97777.06;;;10.88;48.30
15932;BME280;8065;49.520;11.284;2023-04-06T08:24:29;97781.00;;;10.99;47.02
15932;BME280;8065;49.520;11.284;2023-04-06T08:26:57;97785.06;;;11.13;46.43
15932;BME280;8065;49.520;11.284;2023-04-06T08:29:24;97784.75;;;11.24;45.40
15932;BME280;8065;49.520;11.284;2023-04-06T08:31:52;97775.94;;;11.32;45.18
15932;BME280;8065;49.520;11.284;2023-04-06T08:34:18;97778.91;;;11.47;44.61
15932;BME280;8065;49.520;11.284;2023-04-06T08:36:45;97776.84;;;11.79;44.91
15932;BME280;8065;49.520;11.284;2023-04-06T08:39:12;97778.16;;;12.02;44.14
15932;BME280;8065;49.520;11.284;2023-04-06T08:41:41;97779.75;;;11.95;42.70
15932;BME280;8065;49.520;11.284;2023-04-06T08:44:08;97778.31;;;12.06;42.98
15932;BME280;8065;49.520;11.284;2023-04-06T08:46:34;97781.28;;;12.04;43.32
15932;BME280;8065;49.520;11.284;2023-04-06T08:49:03;97783.97;;;12.34;43.06
15932;BME280;8065;49.520;11.284;2023-04-06T08:51:31;97775.97;;;12.63;43.10
15932;BME280;8065;49.520;11.284;2023-04-06T08:53:59;97765.19;;;12.80;43.76
15932;BME280;8065;49.520;11.284;2023-04-06T08:56:26;97770.22;;;13.15;42.70
15932;BME280;8065;49.520;11.284;2023-04-06T08:58:54;97769.63;;;13.51;42.61
15932;BME280;8065;49.520;11.284;2023-04-06T09:01:23;97771.38;;;13.80;41.95
15932;BME280;8065;49.520;11.284;2023-04-06T09:03:55;97767.38;;;13.86;40.55
15932;BME280;8065;49.520;11.284;2023-04-06T09:06:25;97767.38;;;13.98;39.14
15932;BME280;8065;49.520;11.284;2023-04-06T09:08:53;97764.25;;;14.08;39.32
15932;BME280;8065;49.520;11.284;2023-04-06T09:11:20;97768.16;;;14.11;39.08
15932;BME280;8065;49.520;11.284;2023-04-06T09:13:47;97774.97;;;14.21;39.07
15932;BME280;8065;49.520;11.284;2023-04-06T09:16:14;97766.50;;;14.06;39.00
15932;BME280;8065;49.520;11.284;2023-04-06T09:18:41;97761.59;;;14.08;39.08
15932;BME280;8065;49.520;11.284;2023-04-06T09:21:09;97758.94;;;14.57;38.74
15932;BME280;8065;49.520;11.284;2023-04-06T09:23:37;97753.09;;;14.80;38.81
15932;BME280;8065;49.520;11.284;2023-04-06T09:26:05;97755.50;;;14.97;38.56
15932;BME280;8065;49.520;11.284;2023-04-06T09:28:41;97758.53;;;15.23;38.41
15932;BME280;8065;49.520;11.284;2023-04-06T09:31:08;97744.69;;;15.21;38.70
15932;BME280;8065;49.520;11.284;2023-04-06T09:33:37;97750.19;;;15.40;37.78
15932;BME280;8065;49.520;11.284;2023-04-06T09:36:04;97753.44;;;15.62;37.46
15932;BME280;8065;49.520;11.284;2023-04-06T09:38:31;97743.00;;;15.72;36.26
15932;BME280;8065;49.520;11.284;2023-04-06T09:40:59;97738.34;;;15.69;36.74
15932;BME280;8065;49.520;11.284;2023-04-06T09:43:26;97742.03;;;15.65;36.24
15932;BME280;8065;49.520;11.284;2023-04-06T09:45:53;97746.47;;;15.89;36.15
15932;BME280;8065;49.520;11.284;2023-04-06T09:48:20;97742.84;;;15.37;35.95
15932;BME280;8065;49.520;11.284;2023-04-06T09:50:48;97746.63;;;14.81;36.82
15932;BME280;8065;49.520;11.284;2023-04-06T09:53:15;97741.88;;;14.62;36.53
15932;BME280;8065;49.520;11.284;2023-04-06T09:55:45;97745.13;;;14.55;37.37
15932;BME280;8065;49.520;11.284;2023-04-06T09:58:16;97740.13;;;14.94;37.03
15932;BME280;8065;49.520;11.284;2023-04-06T10:00:50;97737.69;;;15.45;36.88
15932;BME280;8065;49.520;11.284;2023-04-06T10:03:26;97736.44;;;16.01;36.19
15932;BME280;8065;49.520;11.284;2023-04-06T10:06:03;97737.38;;;16.25;34.82
15932;BME280;8065;49.520;11.284;2023-04-06T10:08:33;97734.47;;;15.98;35.09
15932;BME280;8065;49.520;11.284;2023-04-06T10:11:02;97741.09;;;16.36;35.47
15932;BME280;8065;49.520;11.284;2023-04-06T10:13:30;97739.78;;;16.30;34.74
15932;BME280;8065;49.520;11.284;2023-04-06T10:15:57;97728.47;;;15.73;35.26
15932;BME280;8065;49.520;11.284;2023-04-06T10:18:25;97736.19;;;15.75;36.50
15932;BME280;8065;49.520;11.284;2023-04-06T10:20:54;97723.72;;;15.67;36.17
15932;BME280;8065;49.520;11.284;2023-04-06T10:23:25;97715.69;;;15.98;36.08
15932;BME280;8065;49.520;11.284;2023-04-06T10:25:53;97714.91;;;16.49;35.76
15932;BME280;8065;49.520;11.284;2023-04-06T10:28:20;97717.06;;;16.24;35.78
15932;BME280;8065;49.520;11.284;2023-04-06T10:30:48;97716.53;;;16.88;35.43
15932;BME280;8065;49.520;11.284;2023-04-06T10:33:16;97710.25;;;17.19;35.46
15932;BME280;8065;49.520;11.284;2023-04-06T10:35:43;97702.84;;;16.93;35.48
15932;BME280;8065;49.520;11.284;2023-04-06T10:38:10;97707.56;;;16.81;34.18
15932;BME280;8065;49.520;11.284;2023-04-06T10:40:40;97710.69;;;17.02;34.42
15932;BME280;8065;49.520;11.284;2023-04-06T10:43:09;97709.06;;;17.40;34.68
15932;BME280;8065;49.520;11.284;2023-04-06T10:45:36;97699.28;;;17.51;34.28
15932;BME280;8065;49.520;11.284;2023-04-06T10:48:13;97696.75;;;17.38;34.16
15932;BME280;8065;49.520;11.284;2023-04-06T10:50:41;97692.94;;;17.82;34.38
15932;BME280;8065;49.520;11.284;2023-04-06T10:53:08;97691.06;;;17.63;34.08
15932;BME280;8065;49.520;11.284;2023-04-06T10:55:34;97697.13;;;16.41;35.61
15932;BME280;8065;49.520;11.284;2023-04-06T10:58:06;97694.81;;;16.58;34.22
15932;BME280;8065;49.520;11.284;2023-04-06T11:00:32;97694.63;;;16.32;34.30
15932;BME280;8065;49.520;11.284;2023-04-06T11:02:59;97694.16;;;15.95;34.52
15932;BME280;8065;49.520;11.284;2023-04-06T11:05:27;97694.38;;;16.37;34.31
15932;BME280;8065;49.520;11.284;2023-04-06T11:07:54;97677.47;;;16.91;34.44
15932;BME280;8065;49.520;11.284;2023-04-06T11:10:21;97688.91;;;17.26;33.80
15932;BME280;8065;49.520;11.284;2023-04-06T11:12:53;97682.56;;;17.61;33.47
15932;BME280;8065;49.520;11.284;2023-04-06T11:15:20;97681.38;;;17.58;33.34
15932;BME280;8065;49.520;11.284;2023-04-06T11:17:47;97677.63;;;17.86;33.40
15932;BME280;8065;49.520;11.284;2023-04-06T11:20:14;97681.75;;;17.80;33.12
15932;BME280;8065;49.520;11.284;2023-04-06T11:22:51;97678.19;;;18.25;32.90
15932;BME280;8065;49.520;11.284;2023-04-06T11:25:18;97667.72;;;18.46;32.07
15932;BME280;8065;49.520;11.284;2023-04-06T11:27:46;97675.84;;;18.20;32.25
15932;BME280;8065;49.520;11.284;2023-04-06T11:30:13;97669.19;;;18.40;31.56
15932;BME280;8065;49.520;11.284;2023-04-06T11:32:41;97662.34;;;18.46;32.08
15932;BME280;8065;49.520;11.284;2023-04-06T11:35:10;97664.38;;;17.28;33.21
15932;BME280;8065;49.520;11.284;2023-04-06T11:37:37;97663.34;;;16.75;32.85
15932;BME280;8065;49.520;11.284;2023-04-06T11:40:08;97657.50;;;17.30;32.41
15932;BME280;8065;49.520;11.284;2023-04-06T11:42:35;97658.13;;;17.66;32.99
15932;BME280;8065;49.520;11.284;2023-04-06T11:45:02;97656.41;;;17.58;31.58
15932;BME280;8065;49.520;11.284;2023-04-06T11:47:30;97646.06;;;18.06;33.04
15932;BME280;8065;49.520;11.284;2023-04-06T11:50:05;97639.16;;;17.82;31.70
15932;BME280;8065;49.520;11.284;2023-04-06T11:52:32;97641.25;;;18.22;32.16
15932;BME280;8065;49.520;11.284;2023-04-06T11:55:12;97637.41;;;18.49;32.49
15932;BME280;8065;49.520;11.284;2023-04-06T11:57:40;97631.69;;;18.54;31.61
15932;BME280;8065;49.520;11.284;2023-04-06T12:00:08;97639.00;;;18.54;31.93
15932;BME280;8065;49.520;11.284;2023-04-06T12:02:35;97633.44;;;18.70;31.73
15932;BME280;8065;49.520;11.284;2023-04-06T12:05:03;97631.09;;;18.64;31.57
15932;BME280;8065;49.520;11.284;2023-04-06T12:07:30;97620.56;;;18.26;30.71
15932;BME280;8065;49.520;11.284;2023-04-06T12:09:57;97626.41;;;18.01;31.37
15932;BME280;8065;49.520;11.284;2023-04-06T12:12:26;97626.97;;;17.42;32.51
15932;BME280;8065;49.520;11.284;2023-04-06T12:14:52;97615.06;;;18.15;32.22
15932;BME280;8065;49.520;11.284;2023-04-06T12:17:19;97623.31;;;17.99;30.82
15932;BME280;8065;49.520;11.284;2023-04-06T12:19:46;97616.78;;;18.30;31.08
15932;BME280;8065;49.520;11.284;2023-04-06T12:22:13;97612.41;;;18.49;31.22
15932;BME280;8065;49.520;11.284;2023-04-06T12:24:40;97614.78;;;18.84;31.71
15932;BME280;8065;49.520;11.284;2023-04-06T12:27:07;97606.09;;;18.64;32.22
15932;BME280;8065;49.520;11.284;2023-04-06T12:29:35;97613.63;;;18.85;32.00
15932;BME280;8065;49.520;11.284;2023-04-06T12:32:01;97605.22;;;18.90;31.08
15932;BME280;8065;49.520;11.284;2023-04-06T12:34:28;97598.47;;;19.10;30.58
15932;BME280;8065;49.520;11.284;2023-04-06T12:36:55;97607.22;;;18.96;30.24
15932;BME280;8065;49.520;11.284;2023-04-06T12:39:22;97600.59;;;18.27;30.26
15932;BME280;8065;49.520;11.284;2023-04-06T12:41:49;97596.16;;;18.08;31.23
15932;BME280;8065;49.520;11.284;2023-04-06T12:44:15;97603.88;;;18.43;31.02
15932;BME280;8065;49.520;11.284;2023-04-06T12:46:43;97597.69;;;18.39;31.59
15932;BME280;8065;49.520;11.284;2023-04-06T12:49:10;97597.22;;;18.63;32.10
15932;BME280;8065;49.520;11.284;2023-04-06T12:51:37;97597.13;;;18.26;31.16
15932;BME280;8065;49.520;11.284;2023-04-06T12:54:03;97590.41;;;18.10;31.39
15932;BME280;8065;49.520;11.284;2023-04-06T12:56:31;97595.56;;;17.46;31.54
15932;BME280;8065;49.520;11.284;2023-04-06T12:58:57;97597.66;;;17.33;32.06
15932;BME280;8065;49.520;11.284;2023-04-06T13:01:24;97592.16;;;17.49;32.22
15932;BME280;8065;49.520;11.284;2023-04-06T13:03:55;97587.19;;;18.00;31.90
15932;BME280;8065;49.520;11.284;2023-04-06T13:06:21;97598.38;;;18.02;31.85
15932;BME280;8065;49.520;11.284;2023-04-06T13:08:48;97589.41;;;18.25;31.68